Warren, Connecticut
Current Conditions -  °F | °C
As of 7:50 PM on Saturday 25 Oct 2014 (Local Time) from KOXC Reporting Station
Broken Clouds Broken Clouds  
Wind Chill: 13°   Ceiling: 8500
Heat Index: 13°   Visibility: 10mi
Dew Point:   Wind: 0mph
Humidity: 58%   Direction: NA
Pressure: 29.61"   Gusts: NA
Location:  41.6879°N, 73.3378°W
Report Text: KOXC 252350Z 00000KT 10SM BKN085 13/05 A2961
Loading
Personal Weather Stations






























Interactive Weather Map
Tropical Storm Tracking
New forecast layout! Learn more

10-Day Weather Forecast

Advertisements
Track Severe Weather on mobile